Time;durP1;ratioP1;P1;durP2;ratioP2;P2;SDS_P1;SDS_P2;PMS_P1;PMS_P2;Temp;Humidity;BMP_temperature;BMP_pressure;BME280_temperature;BME280_humidity;BME280_pressure;Samples;Min_cycle;Max_cycle;Signal;HPM_P1;HPM_P2
2022/06/04 11:42:32;;;;;;;4.47;2.62;;;;;;;19.28;51.87;100113.49;1612870;85;21303;-61
2022/06/04 11:45:28;;;;;;;4.12;3.20;;;;;;;18.93;52.21;100114.41;1627007;84;21290;-61
2022/06/04 11:48:05;;;;;;;;;;;;;;;18.77;52.55;100121.80;1646695;84;21052;-62
2022/06/04 11:50:53;;;;;;;4.60;3.22;;;;;;;18.72;52.55;100114.66;1653458;84;20183;-62
2022/06/04 11:53:34;;;;;;;3.85;3.15;;;;;;;18.78;52.66;100111.09;1644474;85;20911;-62
2022/06/04 11:56:18;;;;;;;3.87;2.50;;;;;;;18.92;52.36;100115.34;1644768;86;21868;-62
2022/06/04 11:59:24;;;;;;;3.45;2.60;;;;;;;18.99;52.48;100113.93;1639429;86;21100;-63
2022/06/04 12:02:01;;;;;;;4.28;3.15;;;;;;;19.08;52.24;100115.03;1643070;86;21035;-63
2022/06/04 12:04:36;;;;;;;4.28;3.20;;;;;;;19.30;53.07;100111.58;1618072;86;21140;-61
2022/06/04 12:07:24;;;;;;;3.85;2.50;;;;;;;19.54;52.17;100111.94;1637679;86;22294;-62
2022/06/04 12:10:05;;;;;;;4.62;2.77;;;;;;;19.57;51.58;100107.72;1638069;86;21007;-62
2022/06/04 12:12:55;;;;;;;4.90;2.75;;;;;;;19.58;51.69;100115.56;1627600;85;21107;-62
2022/06/04 12:15:45;;;;;;;4.75;3.08;;;;;;;19.37;51.64;100122.03;1643340;86;21260;-62
2022/06/04 12:18:35;;;;;;;2.65;2.12;;;;;;;19.10;51.35;100122.83;1608121;88;20977;-62
2022/06/04 12:24:32;;;;;;;4.83;3.02;;;;;;;19.14;51.80;100122.98;1664207;84;21596;-63
2022/06/04 12:27:24;;;;;;;3.30;2.42;;;;;;;18.89;50.92;100119.55;1668910;84;21671;-62
2022/06/04 12:29:56;;;;;;;4.67;2.60;;;;;;;18.69;50.15;100126.80;1669515;83;21433;-62
2022/06/04 12:32:36;;;;;;;5.00;2.67;;;;;;;18.54;50.25;100137.55;1663545;83;21122;-63
2022/06/04 12:35:15;;;;;;;3.02;2.20;;;;;;;18.48;50.98;100130.05;1671995;83;21242;-62
2022/06/04 12:37:47;;;;;;;6.58;2.00;;;;;;;18.59;51.22;100117.84;1644211;86;21904;-61
2022/06/04 12:40:23;;;;;;;3.58;2.17;;;;;;;18.59;50.18;100124.45;1619221;87;21264;-61
2022/06/04 12:43:22;;;;;;;4.62;2.33;;;;;;;18.62;50.69;100125.55;1618058;87;21131;-61
2022/06/04 12:45:52;;;;;;;3.98;2.00;;;;;;;18.51;50.11;100129.85;1615932;87;21122;-61
2022/06/04 12:48:33;;;;;;;3.50;2.10;;;;;;;18.29;50.00;100135.02;1678670;84;21074;-62
2022/06/04 12:51:12;;;;;;;2.25;2.05;;;;;;;18.21;49.40;100124.16;1665646;84;21724;-61
2022/06/04 12:54:02;;;;;;;2.80;2.20;;;;;;;18.15;48.91;100137.80;1690266;83;21050;-62
2022/06/04 12:56:33;;;;;;;5.15;2.17;;;;;;;18.06;49.28;100116.39;1681526;84;21054;-62
2022/06/04 12:59:04;;;;;;;2.72;1.90;;;;;;;18.14;49.48;100113.66;1690196;83;21130;-62
2022/06/04 13:01:37;;;;;;;5.78;2.30;;;;;;;18.17;49.59;100114.75;1667793;84;21156;-61
2022/06/04 13:04:19;;;;;;;2.60;1.98;;;;;;;18.11;49.19;100112.91;1694454;83;21144;-61
2022/06/04 13:07:00;;;;;;;3.27;2.22;;;;;;;18.06;49.36;100115.08;1685218;83;21203;-61
2022/06/04 13:09:50;;;;;;;3.22;2.00;;;;;;;18.29;50.06;100113.39;1693610;83;21596;-62
2022/06/04 13:12:23;;;;;;;2.40;2.20;;;;;;;18.41;48.66;100114.29;1688543;83;21739;-62
2022/06/04 13:15:31;;;;;;;3.80;2.08;;;;;;;18.49;49.30;100115.89;1689556;83;21129;-63
2022/06/04 13:17:59;;;;;;;2.85;1.92;;;;;;;18.47;47.85;100104.58;1687132;83;21217;-60
2022/06/04 13:20:48;;;;;;;2.30;1.87;;;;;;;18.34;48.61;100114.36;1684271;84;21589;-61
2022/06/04 13:23:38;;;;;;;5.97;2.30;;;;;;;18.38;48.75;100119.80;1690749;83;21500;-60
2022/06/04 13:26:46;;;;;;;6.17;2.10;;;;;;;18.16;47.29;100119.69;1688245;82;20940;-60
2022/06/04 13:29:26;;;;;;;4.15;1.90;;;;;;;18.10;47.74;100120.48;1676038;82;21104;-62
2022/06/04 13:32:18;;;;;;;1.92;1.70;;;;;;;18.09;47.99;100113.53;1689285;83;22027;-62
2022/06/04 13:34:58;;;;;;;3.77;2.02;;;;;;;18.06;47.77;100115.08;1687496;83;22677;-61
2022/06/04 13:40:24;;;;;;;2.52;1.98;;;;;;;18.03;47.92;100116.59;1685962;82;21066;-62
2022/06/04 13:42:56;;;;;;;2.37;1.82;;;;;;;18.11;46.52;100120.01;1686271;83;21449;-61
2022/06/04 13:45:34;;;;;;;3.12;2.27;;;;;;;17.97;47.65;100118.35;1682769;83;22623;-61
2022/06/04 13:48:15;;;;;;;2.27;1.90;;;;;;;18.15;47.72;100121.94;1685274;83;21602;-61
2022/06/04 13:50:49;;;;;;;2.37;1.70;;;;;;;18.15;47.25;100121.94;1692191;82;20945;-61
2022/06/04 13:53:21;;;;;;;4.22;2.20;;;;;;;18.06;47.72;100123.45;1690656;83;21035;-61
2022/06/04 13:55:59;;;;;;;4.45;2.17;;;;;;;18.00;47.68;100120.77;1691461;82;20985;-61
2022/06/04 13:58:39;;;;;;;4.95;2.17;;;;;;;18.01;47.67;100121.16;1690603;83;21133;-62
